createdAt,value
2023-01-22T00:01:24.403Z,16.23
2023-01-22T00:03:54.655Z,19.92
2023-01-22T00:06:23.741Z,14.75
2023-01-22T00:08:52.777Z,12.75
2023-01-22T00:11:21.268Z,10.52
2023-01-22T00:13:49.446Z,15.48
2023-01-22T00:16:18.469Z,10.77
2023-01-22T00:18:46.687Z,9.23
2023-01-22T00:21:15.134Z,9.88
2023-01-22T00:23:43.315Z,7.78
2023-01-22T00:26:15.930Z,19.27
2023-01-22T00:28:46.116Z,19.15
2023-01-22T00:31:16.171Z,21.88
2023-01-22T00:33:46.066Z,17.02
2023-01-22T00:36:17.741Z,19.00
2023-01-22T00:38:46.705Z,23.02
2023-01-22T00:41:15.324Z,21.40
2023-01-22T00:43:43.600Z,16.73
2023-01-22T00:46:17.258Z,17.23
2023-01-22T00:48:45.720Z,15.98
2023-01-22T00:51:14.942Z,21.67
2023-01-22T00:53:43.926Z,19.27
2023-01-22T00:56:13.854Z,20.50
2023-01-22T00:58:42.744Z,18.85
2023-01-22T01:01:12.350Z,24.13
2023-01-22T01:03:40.516Z,17.00
2023-01-22T01:06:16.145Z,16.15
2023-01-22T01:08:45.053Z,17.35
2023-01-22T01:11:19.050Z,15.25
2023-01-22T01:13:47.805Z,16.95
2023-01-22T01:16:29.715Z,15.40
2023-01-22T01:19:07.259Z,20.85
2023-01-22T01:21:36.223Z,13.13
2023-01-22T01:24:05.153Z,15.55
2023-01-22T01:26:35.351Z,17.40
2023-01-22T01:29:05.287Z,9.68
2023-01-22T01:31:33.810Z,16.27
2023-01-22T01:34:02.351Z,12.93
2023-01-22T01:36:47.559Z,14.40
2023-01-22T01:39:17.224Z,10.27
2023-01-22T01:41:45.492Z,10.25
2023-01-22T01:44:20.356Z,8.98
2023-01-22T01:47:07.530Z,10.55
2023-01-22T01:49:50.549Z,7.57
2023-01-22T01:52:19.336Z,10.90
2023-01-22T01:54:53.124Z,6.63
2023-01-22T01:57:29.892Z,7.72
2023-01-22T02:00:00.395Z,5.43
2023-01-22T02:02:28.609Z,4.13
2023-01-22T02:04:57.329Z,4.03
2023-01-22T02:07:25.589Z,7.05
2023-01-22T02:09:53.992Z,6.03
2023-01-22T02:12:22.402Z,5.78
2023-01-22T02:14:50.930Z,4.70
2023-01-22T02:17:21.985Z,5.53
2023-01-22T02:19:52.744Z,5.45
2023-01-22T02:22:23.564Z,7.57
2023-01-22T02:24:52.335Z,5.88
2023-01-22T02:27:20.687Z,5.05
2023-01-22T02:29:50.598Z,6.53
2023-01-22T02:32:19.130Z,11.18
2023-01-22T02:34:47.577Z,15.93
2023-01-22T02:37:16.146Z,18.10
2023-01-22T02:39:44.376Z,22.58
2023-01-22T02:42:13.350Z,22.73
2023-01-22T02:44:44.083Z,19.92
2023-01-22T02:47:13.683Z,21.98
2023-01-22T02:49:41.938Z,15.77
2023-01-22T02:52:10.155Z,13.52
2023-01-22T02:54:38.629Z,13.00
2023-01-22T02:57:06.863Z,11.52
2023-01-22T02:59:39.311Z,14.20
2023-01-22T03:02:36.219Z,12.82
2023-01-22T03:05:05.057Z,9.85
2023-01-22T03:07:42.460Z,10.95
2023-01-22T03:10:20.133Z,7.13
2023-01-22T03:13:07.868Z,7.32
2023-01-22T03:15:57.704Z,6.22
2023-01-22T03:18:44.426Z,6.03
2023-01-22T03:21:16.579Z,7.00
2023-01-22T03:23:50.995Z,5.60
2023-01-22T03:26:22.381Z,8.27
2023-01-22T03:28:51.702Z,7.95
2023-01-22T03:31:20.337Z,9.68
2023-01-22T03:33:48.655Z,9.48
2023-01-22T03:36:17.339Z,8.68
2023-01-22T03:38:50.410Z,8.95
2023-01-22T03:41:21.724Z,14.30
2023-01-22T03:43:51.118Z,12.93
2023-01-22T03:46:22.440Z,13.05
2023-01-22T03:48:55.267Z,16.42
2023-01-22T03:51:24.490Z,16.75
2023-01-22T03:53:52.760Z,11.85
2023-01-22T03:56:23.433Z,10.60
2023-01-22T03:58:54.836Z,14.05
2023-01-22T04:01:27.138Z,13.63
2023-01-22T04:03:57.188Z,11.35
2023-01-22T04:06:28.094Z,11.13
2023-01-22T04:08:56.460Z,10.57
2023-01-22T04:11:32.788Z,7.95
2023-01-22T04:14:01.135Z,5.88
2023-01-22T04:16:31.932Z,7.95
2023-01-22T04:19:06.123Z,7.78
2023-01-22T04:21:39.819Z,10.30
2023-01-22T04:24:11.092Z,12.73
2023-01-22T04:26:39.667Z,9.40
2023-01-22T04:29:08.701Z,11.60
2023-01-22T04:31:37.443Z,8.93
2023-01-22T04:34:31.556Z,11.40
2023-01-22T04:37:10.658Z,10.10
2023-01-22T04:39:40.352Z,10.95
2023-01-22T04:42:11.336Z,9.10
2023-01-22T04:44:39.590Z,10.20
2023-01-22T04:47:09.389Z,11.38
2023-01-22T04:49:40.010Z,7.32
2023-01-22T04:52:11.501Z,9.13
2023-01-22T04:54:39.805Z,8.98
2023-01-22T04:57:08.518Z,8.27
2023-01-22T04:59:36.918Z,9.02
2023-01-22T05:02:05.742Z,7.75
2023-01-22T05:04:34.799Z,7.07
2023-01-22T05:07:03.335Z,7.45
2023-01-22T05:09:31.937Z,9.07
2023-01-22T05:12:01.952Z,10.65
2023-01-22T05:14:35.118Z,13.00
2023-01-22T05:17:03.720Z,10.68
2023-01-22T05:19:31.990Z,8.82
2023-01-22T05:22:00.222Z,11.07
2023-01-22T05:24:28.867Z,10.90
2023-01-22T05:26:57.111Z,13.43
2023-01-22T05:29:37.635Z,8.90
2023-01-22T05:32:15.784Z,10.40
2023-01-22T05:34:49.321Z,16.15
2023-01-22T05:37:17.449Z,16.50
2023-01-22T05:39:45.809Z,9.65
2023-01-22T05:42:16.693Z,11.07
2023-01-22T05:44:48.178Z,9.13
2023-01-22T05:47:18.607Z,8.68
2023-01-22T05:49:51.873Z,13.55
2023-01-22T05:52:20.913Z,9.35
2023-01-22T05:54:49.114Z,7.13
2023-01-22T05:57:17.356Z,3.42
2023-01-22T05:59:45.618Z,4.88
2023-01-22T06:02:15.451Z,2.33
2023-01-22T06:04:45.715Z,3.20
2023-01-22T06:07:21.760Z,2.33
2023-01-22T06:09:50.649Z,1.50
2023-01-22T06:12:19.288Z,1.60
2023-01-22T06:14:48.445Z,6.03
2023-01-22T06:17:17.333Z,1.27
2023-01-22T06:19:53.120Z,1.38
2023-01-22T06:22:21.338Z,2.58
2023-01-22T06:24:54.767Z,1.50
2023-01-22T06:27:25.952Z,1.40
2023-01-22T06:32:27.749Z,1.98
2023-01-22T06:34:55.998Z,2.25
2023-01-22T06:37:24.434Z,1.23
2023-01-22T06:39:54.073Z,2.33
2023-01-22T06:42:26.801Z,1.63
2023-01-22T06:44:55.089Z,1.90
2023-01-22T06:47:27.003Z,1.50
2023-01-22T06:49:55.497Z,1.73
2023-01-22T06:52:23.692Z,3.03
2023-01-22T06:54:52.102Z,1.95
2023-01-22T06:57:20.408Z,1.75
2023-01-22T06:59:48.619Z,4.88
2023-01-22T07:02:18.886Z,4.13
2023-01-22T07:04:47.068Z,5.13
2023-01-22T07:07:17.509Z,5.95
2023-01-22T07:09:45.733Z,8.50
2023-01-22T07:12:13.915Z,9.52
2023-01-22T07:14:42.131Z,5.47
2023-01-22T07:17:10.648Z,12.38
2023-01-22T07:19:39.357Z,6.05
2023-01-22T07:22:08.068Z,6.90
2023-01-22T07:24:36.304Z,4.80
2023-01-22T07:27:04.582Z,9.63
2023-01-22T07:29:32.704Z,4.57
2023-01-22T07:32:00.865Z,4.85
2023-01-22T07:34:29.168Z,4.55
2023-01-22T07:36:57.621Z,4.93
2023-01-22T07:39:25.880Z,6.90
2023-01-22T07:41:54.199Z,5.07
2023-01-22T07:44:24.680Z,5.90
2023-01-22T07:46:52.937Z,3.92
2023-01-22T07:49:21.133Z,4.32
2023-01-22T07:51:49.310Z,6.75
2023-01-22T07:54:18.555Z,6.53
2023-01-22T07:56:46.881Z,8.15
2023-01-22T07:59:15.038Z,11.07
2023-01-22T08:01:43.327Z,11.68
2023-01-22T08:04:12.382Z,7.82
2023-01-22T08:06:40.576Z,10.20
2023-01-22T08:09:08.814Z,10.40
2023-01-22T08:11:37.252Z,8.85
2023-01-22T08:14:05.606Z,9.23
2023-01-22T08:16:33.912Z,8.93
2023-01-22T08:19:02.164Z,14.32
2023-01-22T08:21:30.532Z,9.18
2023-01-22T08:23:58.661Z,8.23
2023-01-22T08:26:26.943Z,8.32
2023-01-22T08:28:55.106Z,10.07
2023-01-22T08:31:28.241Z,10.30
2023-01-22T08:33:59.598Z,8.68
2023-01-22T08:36:28.205Z,11.13
2023-01-22T08:38:56.732Z,8.27
2023-01-22T08:41:25.442Z,8.75
2023-01-22T08:43:53.719Z,10.13
2023-01-22T08:46:21.902Z,10.05
2023-01-22T08:48:50.878Z,9.90
2023-01-22T08:51:19.227Z,7.72
2023-01-22T08:53:47.433Z,10.55
2023-01-22T08:56:15.691Z,8.30
2023-01-22T08:58:43.919Z,7.60
2023-01-22T09:01:17.228Z,8.13
2023-01-22T09:03:45.864Z,10.48
2023-01-22T09:06:14.086Z,8.55
2023-01-22T09:08:42.551Z,9.25
2023-01-22T09:11:10.804Z,6.78
2023-01-22T09:13:39.124Z,8.55
2023-01-22T09:16:10.902Z,4.88
2023-01-22T09:18:42.280Z,6.53
2023-01-22T09:21:11.791Z,5.25
2023-01-22T09:23:40.149Z,4.55
2023-01-22T09:26:08.497Z,7.95
2023-01-22T09:28:36.926Z,3.13
2023-01-22T09:31:05.910Z,2.60
2023-01-22T09:33:34.114Z,4.00
2023-01-22T09:36:14.152Z,3.72
2023-01-22T09:38:43.693Z,2.40
2023-01-22T09:41:24.965Z,5.18
2023-01-22T09:43:57.721Z,3.15
2023-01-22T09:46:34.961Z,3.88
2023-01-22T09:49:10.681Z,3.45
2023-01-22T09:51:39.049Z,3.58
2023-01-22T09:54:13.068Z,2.63
2023-01-22T09:56:44.275Z,2.70
2023-01-22T09:59:18.733Z,3.83
2023-01-22T10:01:56.845Z,2.22
2023-01-22T10:04:46.681Z,4.93
2023-01-22T10:07:24.647Z,3.63
2023-01-22T10:10:01.213Z,3.72
2023-01-22T10:12:30.335Z,2.72
2023-01-22T10:14:58.901Z,4.05
2023-01-22T10:17:32.783Z,1.80
2023-01-22T10:20:05.389Z,2.83
2023-01-22T10:22:33.584Z,2.43
2023-01-22T10:25:02.007Z,2.75
2023-01-22T10:27:39.445Z,6.65
2023-01-22T10:30:25.537Z,3.45
2023-01-22T10:33:01.769Z,4.53
2023-01-22T10:35:31.993Z,4.00
2023-01-22T10:38:01.249Z,3.50
2023-01-22T10:40:41.141Z,2.15
2023-01-22T10:43:13.640Z,3.75
2023-01-22T10:45:56.360Z,2.43
2023-01-22T10:48:24.656Z,3.40
2023-01-22T10:51:16.158Z,3.90
2023-01-22T10:53:48.860Z,4.78
2023-01-22T10:56:34.984Z,4.82
2023-01-22T10:59:23.011Z,2.70
2023-01-22T11:01:58.954Z,4.43
2023-01-22T11:04:33.347Z,5.30
2023-01-22T11:07:26.688Z,3.05
2023-01-22T11:10:17.596Z,4.80
2023-01-22T11:12:54.674Z,3.33
2023-01-22T11:15:26.135Z,3.75
2023-01-22T11:17:57.970Z,4.00
2023-01-22T11:20:30.354Z,5.03
2023-01-22T11:23:37.133Z,2.72
2023-01-22T11:26:27.362Z,3.75
2023-01-22T11:29:13.851Z,3.95
2023-01-22T11:31:54.091Z,3.60
2023-01-22T11:34:35.406Z,2.92
2023-01-22T11:37:09.464Z,5.40
2023-01-22T11:39:49.593Z,2.97
2023-01-22T11:42:39.303Z,4.75
2023-01-22T11:45:23.012Z,3.03
2023-01-22T11:48:03.020Z,4.68
2023-01-22T11:51:11.893Z,2.47
2023-01-22T11:54:12.133Z,2.25
2023-01-22T11:57:16.053Z,1.90
2023-01-22T12:00:26.062Z,2.20
2023-01-22T12:03:00.298Z,3.22
2023-01-22T12:05:55.793Z,3.03
2023-01-22T12:08:59.154Z,1.88
2023-01-22T12:11:56.643Z,1.70
2023-01-22T12:14:27.790Z,2.45
2023-01-22T12:17:29.430Z,2.80
2023-01-22T12:20:35.170Z,2.08
2023-01-22T12:23:35.753Z,1.33
2023-01-22T12:26:16.116Z,1.70
2023-01-22T12:29:08.680Z,1.52
2023-01-22T12:31:40.064Z,2.10
2023-01-22T12:34:25.570Z,1.45
2023-01-22T12:36:55.442Z,2.25
2023-01-22T12:39:31.078Z,4.20
2023-01-22T12:42:06.272Z,2.15
2023-01-22T12:44:55.096Z,1.70
2023-01-22T12:47:57.289Z,2.30
2023-01-22T12:50:27.308Z,3.40
2023-01-22T12:53:02.754Z,2.05
2023-01-22T12:55:44.411Z,1.95
2023-01-22T12:58:23.890Z,3.17
2023-01-22T13:01:03.415Z,2.15
2023-01-22T13:03:33.468Z,2.00
2023-01-22T13:06:04.184Z,1.67
2023-01-22T13:08:41.755Z,1.85
2023-01-22T13:11:27.284Z,1.67
2023-01-22T13:14:16.268Z,1.75
2023-01-22T13:16:56.190Z,4.93
2023-01-22T13:19:27.825Z,2.45
2023-01-22T13:22:00.920Z,2.40
2023-01-22T13:24:29.160Z,3.15
2023-01-22T13:27:00.449Z,3.60
2023-01-22T13:29:37.827Z,2.55
2023-01-22T13:32:29.261Z,2.58
2023-01-22T13:35:05.710Z,2.58
2023-01-22T13:37:35.847Z,2.22
2023-01-22T13:40:25.446Z,3.50
2023-01-22T13:42:55.507Z,4.50
2023-01-22T13:45:27.787Z,3.33
2023-01-22T13:48:04.047Z,3.20
2023-01-22T13:50:32.849Z,2.80
2023-01-22T13:53:02.549Z,4.03
2023-01-22T13:55:31.637Z,2.53
2023-01-22T13:58:05.279Z,5.25
2023-01-22T14:00:36.507Z,2.03
2023-01-22T14:03:21.773Z,3.25
2023-01-22T14:05:50.450Z,4.18
2023-01-22T14:08:18.864Z,2.83
2023-01-22T14:10:57.693Z,2.05
2023-01-22T14:13:26.224Z,2.58
2023-01-22T14:15:59.376Z,2.90
2023-01-22T14:18:30.924Z,3.50
2023-01-22T14:20:59.094Z,2.22
2023-01-22T14:23:27.378Z,2.85
2023-01-22T14:25:56.851Z,2.53
2023-01-22T14:28:28.699Z,2.97
2023-01-22T14:30:56.955Z,2.88
2023-01-22T14:33:28.977Z,3.22
2023-01-22T14:35:58.025Z,3.80
2023-01-22T14:38:27.634Z,5.93
2023-01-22T14:40:55.895Z,3.72
2023-01-22T14:43:24.141Z,3.88
2023-01-22T14:45:52.404Z,3.28
2023-01-22T14:48:21.124Z,3.53
2023-01-22T14:50:50.004Z,4.10
2023-01-22T14:53:19.535Z,4.32
2023-01-22T14:55:47.732Z,4.25
2023-01-22T14:58:16.360Z,5.32
2023-01-22T15:00:44.724Z,2.97
2023-01-22T15:03:13.060Z,3.78
2023-01-22T15:05:41.278Z,3.70
2023-01-22T15:08:09.533Z,4.40
2023-01-22T15:10:37.691Z,4.38
2023-01-22T15:13:05.885Z,6.88
2023-01-22T15:15:34.071Z,4.38
2023-01-22T15:18:02.289Z,3.75
2023-01-22T15:20:30.461Z,4.45
2023-01-22T15:22:58.787Z,5.72
2023-01-22T15:25:27.426Z,4.38
2023-01-22T15:27:55.709Z,6.55
2023-01-22T15:30:23.992Z,7.65
2023-01-22T15:32:52.474Z,7.50
2023-01-22T15:35:20.901Z,3.60
2023-01-22T15:37:49.320Z,4.32
2023-01-22T15:40:18.120Z,5.25
2023-01-22T15:42:46.461Z,5.85
2023-01-22T15:45:14.677Z,5.80
2023-01-22T15:47:42.984Z,4.57
2023-01-22T15:50:11.764Z,6.35
2023-01-22T15:52:40.008Z,5.43
2023-01-22T15:55:08.613Z,4.15
2023-01-22T15:57:36.865Z,5.32
2023-01-22T16:00:06.145Z,5.63
2023-01-22T16:02:40.635Z,5.53
2023-01-22T16:05:09.290Z,4.63
2023-01-22T16:07:37.758Z,6.25
2023-01-22T16:10:06.240Z,6.50
2023-01-22T16:12:34.976Z,6.60
2023-01-22T16:15:03.192Z,4.38
2023-01-22T16:17:31.528Z,6.03
2023-01-22T16:19:59.759Z,6.90
2023-01-22T16:22:28.057Z,6.03
2023-01-22T16:24:56.188Z,6.22
2023-01-22T16:27:24.386Z,5.25
2023-01-22T16:29:52.592Z,5.70
2023-01-22T16:32:20.743Z,5.65
2023-01-22T16:34:48.946Z,7.50
2023-01-22T16:37:17.143Z,6.95
2023-01-22T16:39:45.403Z,6.28
2023-01-22T16:42:13.609Z,7.32
2023-01-22T16:44:41.939Z,9.65
2023-01-22T16:47:10.162Z,7.07
2023-01-22T16:49:38.457Z,6.15
2023-01-22T16:52:22.299Z,6.75
2023-01-22T16:54:51.768Z,6.55
2023-01-22T16:57:20.266Z,5.60
2023-01-22T16:59:48.713Z,7.35
2023-01-22T17:02:19.219Z,8.38
2023-01-22T17:04:47.669Z,7.63
2023-01-22T17:07:31.880Z,8.95
2023-01-22T17:10:01.444Z,8.07
2023-01-22T17:12:29.923Z,10.93
2023-01-22T17:14:59.052Z,10.52
2023-01-22T17:17:27.561Z,9.07
2023-01-22T17:19:55.899Z,9.77
2023-01-22T17:22:24.328Z,6.97
2023-01-22T17:24:52.763Z,8.30
2023-01-22T17:27:21.593Z,10.98
2023-01-22T17:29:49.816Z,8.75
2023-01-22T17:32:18.058Z,11.55
2023-01-22T17:34:46.311Z,10.77
2023-01-22T17:37:14.608Z,10.35
2023-01-22T17:39:43.497Z,10.48
2023-01-22T17:42:11.754Z,11.90
2023-01-22T17:44:40.906Z,8.45
2023-01-22T17:47:09.575Z,14.93
2023-01-22T17:49:38.544Z,8.00
2023-01-22T17:52:09.133Z,10.63
2023-01-22T17:54:38.059Z,7.18
2023-01-22T17:57:06.627Z,7.25
2023-01-22T17:59:34.880Z,10.63
2023-01-22T18:02:03.067Z,12.85
2023-01-22T18:07:20.060Z,8.35
2023-01-22T18:09:48.395Z,9.90
2023-01-22T18:12:16.634Z,8.40
2023-01-22T18:14:44.866Z,12.57
2023-01-22T18:17:13.035Z,7.38
2023-01-22T18:19:41.274Z,8.30
2023-01-22T18:22:09.800Z,8.80
2023-01-22T18:24:38.115Z,9.18
2023-01-22T18:27:06.771Z,8.50
2023-01-22T18:29:35.031Z,11.90
2023-01-22T18:32:03.321Z,8.60
2023-01-22T18:34:31.577Z,8.82
2023-01-22T18:36:59.760Z,9.48
2023-01-22T18:39:28.322Z,16.98
2023-01-22T18:41:56.448Z,10.65
2023-01-22T18:44:27.669Z,11.35
2023-01-22T18:46:58.729Z,11.38
2023-01-22T18:49:28.205Z,12.65
2023-01-22T18:52:01.402Z,11.85
2023-01-22T18:54:29.749Z,15.57
2023-01-22T18:56:58.045Z,13.85
2023-01-22T18:59:26.284Z,10.65
2023-01-22T19:01:54.635Z,16.23
2023-01-22T19:04:22.928Z,10.07
2023-01-22T19:06:53.461Z,10.73
2023-01-22T19:09:21.795Z,13.55
2023-01-22T19:11:52.405Z,12.40
2023-01-22T19:14:21.388Z,9.70
2023-01-22T19:16:53.839Z,13.75
2023-01-22T19:19:22.927Z,12.43
2023-01-22T19:21:54.400Z,13.65
2023-01-22T19:24:26.615Z,13.40
2023-01-22T19:26:56.311Z,11.60
2023-01-22T19:29:25.778Z,12.40
2023-01-22T19:31:55.770Z,9.60
2023-01-22T19:34:25.438Z,10.20
2023-01-22T19:36:57.048Z,15.15
2023-01-22T19:39:25.752Z,17.13
2023-01-22T19:41:54.541Z,16.50
2023-01-22T19:44:22.814Z,17.60
2023-01-22T19:46:51.039Z,18.75
2023-01-22T19:49:19.243Z,14.45
2023-01-22T19:51:47.512Z,17.52
2023-01-22T19:54:15.960Z,15.95
2023-01-22T19:56:45.742Z,13.88
2023-01-22T19:59:17.128Z,16.42
2023-01-22T20:01:47.413Z,15.85
2023-01-22T20:04:21.440Z,12.65
2023-01-22T20:06:54.670Z,21.35
2023-01-22T20:11:53.899Z,14.27
2023-01-22T20:14:24.449Z,14.75
2023-01-22T20:16:52.761Z,14.07
2023-01-22T20:19:21.155Z,15.80
2023-01-22T20:21:49.311Z,11.60
2023-01-22T20:24:17.780Z,12.80
2023-01-22T20:26:45.997Z,13.73
2023-01-22T20:29:14.382Z,12.43
2023-01-22T20:31:42.808Z,12.98
2023-01-22T20:34:11.175Z,17.40
2023-01-22T20:36:40.159Z,16.15
2023-01-22T20:39:08.341Z,11.45
2023-01-22T20:41:36.541Z,12.35
2023-01-22T20:44:05.326Z,12.05
2023-01-22T20:46:36.047Z,12.05
2023-01-22T20:49:04.563Z,14.57
2023-01-22T20:51:34.466Z,13.93
2023-01-22T20:54:03.116Z,13.07
2023-01-22T20:56:32.985Z,12.68
2023-01-22T20:59:10.885Z,13.63
2023-01-22T21:01:39.655Z,12.20
2023-01-22T21:04:08.405Z,10.48
2023-01-22T21:06:39.406Z,10.77
2023-01-22T21:09:09.089Z,9.23
2023-01-22T21:11:39.957Z,12.43
2023-01-22T21:14:10.721Z,8.85
2023-01-22T21:16:39.974Z,9.20
2023-01-22T21:19:13.927Z,11.27
2023-01-22T21:21:42.132Z,11.73
2023-01-22T21:24:10.561Z,11.50
2023-01-22T21:26:39.580Z,8.43
2023-01-22T21:29:11.254Z,9.45
2023-01-22T21:31:39.932Z,11.95
2023-01-22T21:34:10.576Z,11.45
2023-01-22T21:36:41.454Z,9.35
2023-01-22T21:39:14.635Z,7.82
2023-01-22T21:41:44.142Z,9.68
2023-01-22T21:44:33.534Z,10.18
2023-01-22T21:47:02.432Z,10.35
2023-01-22T21:49:31.470Z,11.57
2023-01-22T21:52:05.757Z,9.88
2023-01-22T21:54:41.195Z,10.18
2023-01-22T21:57:13.599Z,11.00
2023-01-22T21:59:44.215Z,10.45
2023-01-22T22:02:18.777Z,10.23
2023-01-22T22:04:47.509Z,11.65
2023-01-22T22:07:15.808Z,10.98
2023-01-22T22:09:44.445Z,10.85
2023-01-22T22:12:12.661Z,11.15
2023-01-22T22:14:40.869Z,7.15
2023-01-22T22:17:09.157Z,8.98
2023-01-22T22:19:37.405Z,9.68
2023-01-22T22:22:05.599Z,11.88
2023-01-22T22:24:33.800Z,12.65
2023-01-22T22:27:04.709Z,11.13
2023-01-22T22:29:32.833Z,10.70
2023-01-22T22:32:01.070Z,10.02
2023-01-22T22:34:29.324Z,14.85
2023-01-22T22:36:57.569Z,12.50
2023-01-22T22:39:25.711Z,12.55
2023-01-22T22:41:53.863Z,10.02
2023-01-22T22:44:22.073Z,14.32
2023-01-22T22:46:50.355Z,10.60
2023-01-22T22:49:18.714Z,9.82
2023-01-22T22:51:47.062Z,11.55
2023-01-22T22:54:17.726Z,9.07
2023-01-22T22:56:49.893Z,9.25
2023-01-22T22:59:19.822Z,11.25
2023-01-22T23:01:49.378Z,11.45
2023-01-22T23:04:18.097Z,11.27
2023-01-22T23:06:47.032Z,9.10
2023-01-22T23:09:17.985Z,12.50
2023-01-22T23:11:46.728Z,11.25
2023-01-22T23:14:14.966Z,11.70
2023-01-22T23:16:44.208Z,13.35
2023-01-22T23:19:18.485Z,12.27
2023-01-22T23:21:50.774Z,13.07
2023-01-22T23:24:19.076Z,18.40
2023-01-22T23:26:48.195Z,18.38
2023-01-22T23:29:20.951Z,17.25
2023-01-22T23:31:49.440Z,18.52
2023-01-22T23:34:20.109Z,19.45
2023-01-22T23:36:49.645Z,15.73
2023-01-22T23:39:19.881Z,17.00
2023-01-22T23:41:48.446Z,17.08
2023-01-22T23:44:16.624Z,16.65
2023-01-22T23:46:45.772Z,16.42
2023-01-22T23:49:14.055Z,13.10
2023-01-22T23:51:44.354Z,13.20
2023-01-22T23:54:12.628Z,12.00
2023-01-22T23:56:40.861Z,9.13
2023-01-22T23:59:11.332Z,10.98
